Vremea mâine în Anina - Romania

Vrei sa afli care e starea vremii acum in Caras-Severin - Romania? Dorim sa iti furnizam starea vremii pentru Caras-Severin - Romania. Starea vremii Caras-Severin - Romania pentru astazi.

Vremea mâine în Anina

Temperatura minimă:
9.9 °C

Temperatura maximă:
23.3 °C

Mâine va fi: Senin
Precipitații: 0 %
Umiditate: 60%
Viteza maximă vânt mâine:
12.2 km/h

Evoluția vremii in Anina pe ore mâine

Ora: 03:00
Temperatura: °C
Sansa de precipitatii: %
Ora Descriere Temp Se simte Precipitatii Umiditate Vant
00:00Senin12.4°11.2°0%66%ESE 12.2 KM/H
01:00Senin12.2°11.1°0%66%ESE 11.2 KM/H
02:00Senin11.3°11.1°0%69%ESE 5.4 KM/H
03:00Senin10.4°10.1°0%72%E 5.4 KM/H
04:00Senin10.2°9.9°0%73%ESE 5 KM/H
05:00Senin9.9°10.2°0%74%SE 3.6 KM/H
06:00Senin9.9°9.8°0%74%ESE 4.7 KM/H
07:00Acoperit de nori10.5°10.4°0%74%ESE 5 KM/H
08:00Innorat14.3°14.8°0%68%SE 4.3 KM/H
09:0016.8°16.8°0%61%SSW 5.4 KM/H
10:0018.2°18.2°0%58%SW 6.8 KM/H
11:00Senin19.6°19.6°0%55%WSW 7.2 KM/H
12:00Senin20.8°20.8°0%52%WSW 7.9 KM/H
13:00Senin21.6°21.6°0%49%WSW 6.5 KM/H
14:00Senin22.6°24.5°0%46%WSW 8.6 KM/H
15:00Senin23°24.6°0%45%WSW 9.4 KM/H
16:00Senin23.3°24.6°0%43%WSW 11.2 KM/H
17:00Senin23.2°24.6°0%43%WSW 10.1 KM/H
18:00Senin22.9°24.5°0%44%WSW 8.6 KM/H
19:00Senin22°24.5°0%55%WSW 5.8 KM/H
20:00Senin17.2°17.2°0%62%SE 2.5 KM/H
21:00Senin14.8°14.8°0%64%ESE 6.8 KM/H
22:00Senin13.8°13.5°0%66%E 7.9 KM/H
23:00Senin13.3°12.8°0%67%ESE 9 KM/H




tutorials